Time;durP1;ratioP1;P1;durP2;ratioP2;P2;SDS_P1;SDS_P2;PMS_P1;PMS_P2;Temp;Humidity;BMP_temperature;BMP_pressure;BME280_temperature;BME280_humidity;BME280_pressure;Samples;Min_cycle;Max_cycle;Signal;HPM_P1;HPM_P2
2021/12/09 00:01:33;;;;;;;15.83;12.57;;;;;;;2.07;75.13;98162.22;5032842;28;20227;-83
2021/12/09 00:04:06;;;;;;;18.53;12.90;;;;;;;2.08;74.62;98179.72;5031082;28;20225;-82
2021/12/09 00:06:36;;;;;;;18.00;14.07;;;;;;;2.12;74.83;98199.44;5030500;28;20237;-82
2021/12/09 00:09:08;;;;;;;16.13;12.80;;;;;;;2.07;74.67;98203.69;5022689;23;20678;-83
2021/12/09 00:11:43;;;;;;;16.00;12.23;;;;;;;2.01;74.68;98196.56;5033253;28;20233;-82
2021/12/09 00:14:29;;;;;;;16.93;13.53;;;;;;;2.09;74.37;98199.84;5033778;28;20295;-83
2021/12/09 00:17:05;;;;;;;19.67;13.70;;;;;;;2.12;74.44;98194.16;5049186;28;20213;-82
2021/12/09 00:19:37;;;;;;;17.03;12.80;;;;;;;2.16;73.97;98194.56;5031397;28;20316;-83
2021/12/09 00:22:06;;;;;;;17.37;13.03;;;;;;;2.12;74.19;98180.94;5047076;28;20233;-82
2021/12/09 00:24:33;;;;;;;17.47;13.27;;;;;;;2.18;73.56;98176.69;5033125;28;20244;-82
2021/12/09 00:27:00;;;;;;;16.80;13.00;;;;;;;2.18;73.67;98193.34;5032725;28;20227;-82
2021/12/09 00:29:28;;;;;;;17.90;13.43;;;;;;;2.05;73.79;98174.03;5031727;28;20225;-82
2021/12/09 00:31:56;;;;;;;17.10;12.77;;;;;;;2.10;74.08;98182.97;5034257;28;20209;-83
2021/12/09 00:34:32;;;;;;;19.30;13.90;;;;;;;2.06;73.91;98187.00;5031991;28;20248;-82
2021/12/09 00:39:51;;;;;;;17.97;13.93;;;;;;;2.11;74.39;98196.97;5051319;28;20221;-82
2021/12/09 00:42:29;;;;;;;17.30;13.77;;;;;;;2.05;74.24;98193.31;5066033;28;20244;-83
2021/12/09 00:44:56;;;;;;;18.10;13.93;;;;;;;2.00;74.94;98201.03;5050696;28;20236;-83
2021/12/09 00:47:24;;;;;;;19.93;14.73;;;;;;;2.06;74.43;98210.78;5048916;28;20259;-81
2021/12/09 00:49:56;;;;;;;18.67;14.20;;;;;;;2.01;74.48;98210.56;5067208;28;20225;-82
2021/12/09 00:52:27;;;;;;;19.07;14.60;;;;;;;2.09;75.22;98212.25;5031806;28;20221;-83
2021/12/09 00:54:56;;;;;;;20.00;14.53;;;;;;;2.06;75.16;98196.78;5033692;28;20240;-82
2021/12/09 00:57:24;;;;;;;19.23;15.13;;;;;;;1.93;75.42;98194.91;5030784;28;20244;-83
2021/12/09 00:59:52;;;;;;;20.63;15.57;;;;;;;1.90;75.01;98187.41;5033417;28;20218;-83
2021/12/09 01:02:20;;;;;;;20.73;15.60;;;;;;;1.93;74.73;98192.28;5032403;28;20231;-83
2021/12/09 01:04:53;;;;;;;20.23;15.97;;;;;;;1.97;75.49;98195.31;5034705;28;20221;-83
2021/12/09 01:07:19;;;;;;;21.40;16.17;;;;;;;1.91;75.22;98193.50;5048214;28;20241;-83
2021/12/09 01:09:49;;;;;;;20.03;15.60;;;;;;;1.88;75.45;98196.53;5047758;28;20229;-83
2021/12/09 01:12:17;;;;;;;22.40;16.00;;;;;;;1.97;75.30;98204.06;5047428;28;20190;-82
2021/12/09 01:14:44;;;;;;;21.87;16.37;;;;;;;1.91;75.57;98199.59;5027489;28;20252;-83
2021/12/09 01:17:12;;;;;;;21.33;15.97;;;;;;;1.91;75.86;98206.72;5029040;28;20225;-82
2021/12/09 01:19:39;;;;;;;21.53;16.37;;;;;;;1.96;75.78;98201.66;5045085;28;20242;-82
2021/12/09 01:22:06;;;;;;;21.57;16.53;;;;;;;1.97;75.77;98205.91;5045302;28;20237;-83
2021/12/09 01:24:34;;;;;;;23.60;17.57;;;;;;;1.86;76.62;98201.19;5027143;28;20317;-82
2021/12/09 01:27:02;;;;;;;22.40;16.87;;;;;;;1.95;76.02;98205.28;5043333;28;20226;-83
2021/12/09 01:29:36;;;;;;;23.63;17.87;;;;;;;1.86;76.29;98194.09;5027836;28;20280;-83
2021/12/09 01:32:07;;;;;;;23.93;18.17;;;;;;;1.90;76.63;98205.06;5012513;28;20649;-82
2021/12/09 01:34:37;;;;;;;25.40;18.43;;;;;;;1.84;77.21;98203.22;5042912;28;20260;-82
2021/12/09 01:37:05;;;;;;;24.23;18.37;;;;;;;1.91;76.61;98217.28;5026401;28;20222;-82
2021/12/09 01:39:34;;;;;;;25.03;18.93;;;;;;;1.89;77.29;98198.97;5049413;23;20254;-82
2021/12/09 01:42:06;;;;;;;27.07;19.63;;;;;;;1.92;77.71;98205.66;5042073;28;20249;-82
2021/12/09 01:44:37;;;;;;;29.97;19.73;;;;;;;1.86;77.91;98198.56;5041683;28;20228;-82
2021/12/09 01:47:03;;;;;;;27.20;20.60;;;;;;;1.76;77.86;98189.19;5042005;28;20587;-82
2021/12/09 01:49:31;;;;;;;27.30;20.37;;;;;;;1.74;78.33;98207.03;5020533;28;20252;-82
2021/12/09 01:52:06;;;;;;;29.70;21.73;;;;;;;1.74;79.38;98219.44;5059469;23;20222;-82
2021/12/09 01:54:36;;;;;;;30.50;21.47;;;;;;;1.66;79.88;98201.13;5039454;23;20253;-85
2021/12/09 01:57:03;;;;;;;33.07;22.27;;;;;;;1.60;79.60;98204.56;5051872;28;20294;-83
2021/12/09 01:59:38;;;;;;;28.63;20.93;;;;;;;1.57;80.70;98197.03;5040978;23;20293;31
2021/12/09 02:02:15;;;;;;;30.33;22.83;;;;;;;1.50;80.48;98202.28;5123228;23;20225;-83
2021/12/09 02:04:48;;;;;;;30.97;22.57;;;;;;;1.46;81.02;98190.47;5038720;23;20231;-83
2021/12/09 02:07:37;;;;;;;32.43;23.37;;;;;;;1.51;81.45;98197.81;5045570;23;20230;31
2021/12/09 02:10:38;;;;;;;32.97;23.30;;;;;;;1.51;81.64;98203.91;5024723;23;20243;-84
2021/12/09 02:13:13;;;;;;;30.80;22.20;;;;;;;1.44;82.45;98186.44;5077814;23;20222;-83
2021/12/09 02:16:06;;;;;;;32.40;23.10;;;;;;;1.27;82.20;98188.56;5037852;28;20257;-83
2021/12/09 02:18:38;;;;;;;32.97;23.17;;;;;;;1.30;82.62;98182.91;5033881;28;20226;-84
2021/12/09 02:21:25;;;;;;;32.10;22.43;;;;;;;1.16;83.41;98182.03;5023675;28;20245;-83
2021/12/09 02:24:18;;;;;;;33.03;23.17;;;;;;;1.15;84.30;98176.94;5075999;23;20242;-83
2021/12/09 02:26:50;;;;;;;36.73;23.13;;;;;;;1.14;83.53;98177.94;5055413;28;20190;-84
2021/12/09 02:30:19;;;;;;;35.10;23.17;;;;;;;1.13;83.66;98176.31;5051648;23;20226;-84
2021/12/09 02:33:16;;;;;;;34.83;23.37;;;;;;;0.90;83.94;98147.56;5037899;28;20230;-84
2021/12/09 02:37:11;;;;;;;34.23;23.53;;;;;;;1.09;83.47;98175.06;4988371;28;20228;-84
2021/12/09 02:40:40;;;;;;;34.60;24.57;;;;;;;0.95;84.34;98145.19;5073396;23;20249;-84
2021/12/09 02:43:39;;;;;;;36.73;25.40;;;;;;;0.95;83.26;98158.34;5164270;23;20213;-85
2021/12/09 02:47:40;;;;;;;40.73;27.37;;;;;;;1.01;84.30;98181.31;5058998;28;20177;-84
2021/12/09 10:01:39;;;;;;;21.40;15.37;;;;;;;0.91;85.38;98256.50;5053979;23;20271;-84
2021/12/09 10:45:29;;;;;;;19.93;13.97;;;;;;;1.22;86.42;98262.19;4918851;29;20229;-85
2021/12/09 10:52:00;;;;;;;19.77;14.60;;;;;;;1.25;85.17;98231.00;1286730;27;20495;-85
2021/12/09 10:55:38;;;;;;;21.57;14.17;;;;;;;1.42;85.05;98265.78;4961627;28;20308;-85
2021/12/09 11:06:22;;;;;;;30.93;16.30;;;;;;;1.29;86.16;98237.50;5073087;23;20295;-86
2021/12/09 11:09:59;;;;;;;25.77;17.43;;;;;;;1.25;86.02;98206.44;4890952;29;20405;-84
2021/12/09 11:13:28;;;;;;;24.30;16.07;;;;;;;1.39;85.88;98239.78;4917745;29;20307;-85
2021/12/09 11:16:43;;;;;;;26.20;17.63;;;;;;;1.32;85.17;98215.19;4899447;29;20274;-85
2021/12/09 11:20:00;;;;;;;33.17;22.27;;;;;;;1.52;84.85;98255.69;4957761;23;20285;-85
2021/12/09 13:48:28;;;;;;;28.40;21.07;;;;;;;0.60;86.35;98202.34;4960106;28;20240;-84
2021/12/09 13:58:20;;;;;;;26.83;20.10;;;;;;;0.81;86.82;98247.13;5142009;23;20272;-84
2021/12/09 14:00:57;;;;;;;21.07;15.43;;;;;;;0.92;87.50;98250.25;4964678;28;20201;-85
2021/12/09 14:03:39;;;;;;;20.03;14.17;;;;;;;0.68;87.18;98225.91;4950792;29;20193;-84
2021/12/09 14:06:12;;;;;;;18.47;14.90;;;;;;;0.95;87.02;98258.56;4978973;28;20672;-85
2021/12/09 14:08:54;;;;;;;24.83;17.33;;;;;;;0.74;86.54;98225.16;5026021;23;20320;-84
2021/12/09 14:11:34;;;;;;;97.70;49.57;;;;;;;0.70;87.30;98237.06;4958885;29;20228;-83
2021/12/09 14:14:13;;;;;;;44.27;32.20;;;;;;;0.63;87.63;98217.78;4936353;29;20256;-84
2021/12/09 14:16:54;;;;;;;25.30;19.50;;;;;;;0.85;87.24;98250.16;4962071;28;20205;-85
2021/12/09 14:22:03;;;;;;;36.03;29.07;;;;;;;0.72;87.07;98245.63;4976835;23;21400;-85
2021/12/09 14:24:46;;;;;;;20.33;15.53;;;;;;;0.67;87.55;98240.09;4979702;28;20165;-84
2021/12/09 14:27:44;;;;;;;16.70;13.33;;;;;;;0.77;87.00;98243.22;4999717;23;20216;-85
2021/12/09 14:30:13;;;;;;;17.17;12.83;;;;;;;0.74;86.63;98250.72;4996656;23;20232;-84
2021/12/09 14:32:50;;;;;;;16.67;12.60;;;;;;;0.67;87.06;98245.38;4943843;28;20251;-84
2021/12/09 14:35:25;;;;;;;22.30;16.93;;;;;;;0.70;86.62;98247.63;4982705;23;20214;-84
2021/12/09 14:37:54;;;;;;;22.37;17.13;;;;;;;0.60;87.09;98256.88;4980439;23;20244;-85
2021/12/09 14:40:55;;;;;;;16.60;12.70;;;;;;;0.66;87.27;98256.91;4955035;29;20232;-83
2021/12/09 14:43:27;;;;;;;19.77;14.57;;;;;;;0.61;86.57;98254.03;4949179;29;20241;-84
2021/12/09 14:46:00;;;;;;;21.10;14.50;;;;;;;0.60;87.04;98247.16;4961119;29;20229;-84
2021/12/09 14:48:34;;;;;;;20.33;14.97;;;;;;;0.68;87.28;98278.66;4976809;28;20219;-84
2021/12/09 14:54:00;;;;;;;19.17;14.70;;;;;;;0.60;87.53;98276.16;4956315;23;20236;-83
2021/12/09 14:56:32;;;;;;;22.27;15.10;;;;;;;0.44;88.15;98258.75;4958872;23;20241;-83
2021/12/09 14:59:29;;;;;;;21.20;14.50;;;;;;;0.53;88.81;98263.88;4951236;23;20221;-84
2021/12/09 15:02:33;;;;;;;22.83;15.50;;;;;;;0.49;88.73;98263.47;4948239;23;20238;-84
2021/12/09 15:05:05;;;;;;;33.10;24.13;;;;;;;0.30;88.46;98254.34;4954245;23;20233;-84
2021/12/09 15:07:47;;;;;;;24.30;17.33;;;;;;;0.52;88.33;98299.97;4938461;29;20237;-84
2021/12/09 15:10:23;;;;;;;23.47;15.20;;;;;;;0.64;88.95;98285.31;4955434;29;20236;-84
2021/12/09 15:12:51;;;;;;;25.03;15.93;;;;;;;0.65;90.31;98284.31;4958459;29;20197;-84
2021/12/09 15:15:25;;;;;;;331.67;30.43;;;;;;;0.53;88.84;98280.53;4956829;29;20241;-85
2021/12/09 15:17:58;;;;;;;26.93;17.43;;;;;;;0.42;89.01;98265.22;4970809;23;20702;-84
2021/12/09 15:20:50;;;;;;;22.83;15.70;;;;;;;0.27;89.52;98251.28;4924220;29;20236;-84
2021/12/09 15:24:15;;;;;;;21.50;14.47;;;;;;;0.52;89.25;98275.44;4953773;28;20236;-85
2021/12/09 15:26:45;;;;;;;21.83;15.83;;;;;;;0.43;89.27;98280.00;4958580;29;20232;-83
2021/12/09 15:29:20;;;;;;;20.07;14.20;;;;;;;0.26;89.63;98236.47;4944025;23;20245;-84
2021/12/09 15:32:09;;;;;;;17.57;12.90;;;;;;;0.32;88.59;98233.94;4919588;23;20280;-84
2021/12/09 15:34:57;;;;;;;17.97;13.20;;;;;;;0.43;88.77;98230.78;4917818;29;20272;-84
2021/12/09 15:37:26;;;;;;;18.67;13.03;;;;;;;0.45;88.61;98233.22;4983467;23;20234;-84
2021/12/09 15:40:17;;;;;;;18.63;13.60;;;;;;;0.34;89.87;98202.91;4930448;29;20205;-84
2021/12/09 15:42:50;;;;;;;20.97;13.73;;;;;;;0.19;89.45;98182.91;4939908;29;20536;-83
2021/12/09 15:45:22;;;;;;;18.57;13.53;;;;;;;0.37;89.27;98204.38;4956137;29;20657;-85
2021/12/09 15:47:55;;;;;;;26.77;16.27;;;;;;;0.16;89.91;98180.66;4956485;29;20281;-84
2021/12/09 15:50:29;;;;;;;18.97;14.43;;;;;;;0.41;89.86;98209.09;4968345;23;20249;-84
2021/12/09 15:52:58;;;;;;;23.63;17.10;;;;;;;0.23;89.32;98211.34;4937279;29;20221;-83
2021/12/09 15:55:33;;;;;;;20.67;14.50;;;;;;;0.19;89.96;98209.25;4951444;23;20233;-85
2021/12/09 15:58:24;;;;;;;20.67;15.07;;;;;;;0.26;89.46;98218.88;4965783;23;20284;-84
2021/12/09 16:00:53;;;;;;;22.53;15.43;;;;;;;0.37;90.58;98262.34;4963485;28;20228;-85
2021/12/09 16:03:31;;;;;;;23.03;15.90;;;;;;;0.31;89.71;98282.34;4975053;28;20240;-85
2021/12/09 16:06:01;;;;;;;22.00;15.70;;;;;;;0.15;89.93;98231.69;4963290;23;20245;-82
2021/12/09 16:08:29;;;;;;;22.23;15.80;;;;;;;0.16;89.58;98231.53;4940696;28;20193;-82
2021/12/09 16:11:05;;;;;;;25.70;17.27;;;;;;;0.28;90.14;98227.38;4953646;29;20508;-82
2021/12/09 16:14:09;;;;;;;23.00;17.47;;;;;;;0.44;89.79;98240.31;4955385;23;20542;-82
2021/12/09 16:16:45;;;;;;;25.43;16.30;;;;;;;0.34;89.90;98252.16;5041810;23;20260;-82
2021/12/09 16:19:19;;;;;;;29.17;17.77;;;;;;;0.50;89.31;98246.66;4957037;28;20210;-83
2021/12/09 16:22:28;;;;;;;25.33;17.07;;;;;;;0.32;89.14;98251.56;4953661;29;20281;-82
2021/12/09 16:24:56;;;;;;;26.70;17.57;;;;;;;0.36;89.14;98294.97;4958124;23;20285;31
2021/12/09 16:27:55;;;;;;;26.90;18.10;;;;;;;0.17;89.89;98274.50;4942689;23;20232;-82
2021/12/09 16:30:49;;;;;;;25.47;17.17;;;;;;;0.11;89.97;98269.94;4959484;23;20234;-82
2021/12/09 16:33:25;;;;;;;24.80;17.03;;;;;;;0.19;90.45;98307.53;4937080;29;20179;-82
2021/12/09 16:35:54;;;;;;;24.50;17.33;;;;;;;0.30;90.14;98324.66;4937117;29;20246;-82
2021/12/09 16:38:29;;;;;;;25.40;17.50;;;;;;;0.29;89.87;98329.13;4920571;29;20202;-82
2021/12/09 16:40:57;;;;;;;25.43;17.77;;;;;;;0.26;89.70;98326.06;4917552;29;20234;-82
2021/12/09 16:43:30;;;;;;;25.73;17.97;;;;;;;0.20;90.28;98317.06;4937483;29;20254;-82
2021/12/09 16:46:03;;;;;;;24.83;17.33;;;;;;;0.46;89.83;98360.53;4937949;29;20233;-82
2021/12/09 16:48:36;;;;;;;28.27;19.20;;;;;;;0.50;89.44;98359.16;4938779;29;20222;-82
2021/12/09 16:51:07;;;;;;;28.10;18.73;;;;;;;0.58;89.32;98357.22;4940863;29;20171;-82
2021/12/09 16:53:44;;;;;;;28.90;20.40;;;;;;;0.50;87.92;98343.34;4924600;29;20236;-82
2021/12/09 16:56:56;;;;;;;25.47;17.30;;;;;;;0.55;88.21;98351.50;4899116;29;20254;-83
2021/12/09 16:59:49;;;;;;;23.93;16.83;;;;;;;0.48;88.24;98327.69;4929814;29;20225;-82
2021/12/09 17:02:32;;;;;;;25.73;16.87;;;;;;;0.61;87.68;98322.56;4924022;29;20230;-82
2021/12/09 17:05:24;;;;;;;22.80;16.40;;;;;;;0.42;87.82;98312.66;4939300;23;20245;-82
2021/12/09 17:08:12;;;;;;;24.73;17.17;;;;;;;0.50;86.98;98309.06;4956107;23;20292;-82
2021/12/09 17:14:07;;;;;;;23.27;17.00;;;;;;;0.85;87.04;98342.47;4960150;28;20257;-82
2021/12/09 17:16:35;;;;;;;23.97;17.10;;;;;;;0.84;86.29;98319.75;4961142;23;20230;-82
2021/12/09 17:19:38;;;;;;;21.87;15.60;;;;;;;0.86;84.50;98294.81;4952724;23;20228;-82
2021/12/09 17:28:31;;;;;;;20.70;15.37;;;;;;;0.96;83.97;98275.22;4981210;23;20309;-82
2021/12/09 17:43:22;;;;;;;21.33;15.43;;;;;;;1.16;81.69;98284.09;4975335;28;20275;-84
2021/12/09 17:45:51;;;;;;;22.37;15.70;;;;;;;1.22;82.26;98283.31;4975482;29;20235;-84
2021/12/09 17:48:33;;;;;;;21.47;16.33;;;;;;;1.19;82.19;98281.06;4960615;29;20244;-83
2021/12/09 17:57:23;;;;;;;21.20;16.17;;;;;;;1.28;81.54;98291.28;4978057;28;20196;-83
2021/12/09 18:00:02;;;;;;;20.80;15.43;;;;;;;1.09;81.56;98264.75;4963328;29;20249;-81
2021/12/09 18:02:52;;;;;;;20.53;15.57;;;;;;;1.19;81.65;98307.44;4932323;29;20203;-83
2021/12/09 18:05:32;;;;;;;22.73;16.33;;;;;;;1.14;82.11;98323.84;4907132;29;20295;-83
2021/12/09 18:08:09;;;;;;;22.63;16.77;;;;;;;1.09;83.12;98326.25;4920990;29;20218;-82
2021/12/09 18:10:56;;;;;;;23.00;16.27;;;;;;;1.20;83.16;98341.56;4926132;23;20226;-83
2021/12/09 18:13:32;;;;;;;21.60;16.27;;;;;;;1.10;83.50;98309.41;4940366;29;20215;-82
2021/12/09 18:16:12;;;;;;;22.57;16.83;;;;;;;1.18;82.61;98332.19;4938272;29;20230;-83
2021/12/09 18:31:16;;;;;;;18.20;14.43;;;;;;;1.12;83.46;98303.97;4917500;29;20245;-84
2021/12/09 18:33:53;;;;;;;19.03;14.90;;;;;;;1.10;83.61;98298.03;4917603;29;20238;-83
2021/12/09 18:36:29;;;;;;;19.57;14.60;;;;;;;1.17;83.74;98298.91;4916656;29;20226;-83
2021/12/09 18:39:03;;;;;;;17.27;13.57;;;;;;;1.32;82.81;98326.00;4915257;29;20231;-83
2021/12/09 18:41:30;;;;;;;19.27;14.63;;;;;;;1.18;83.61;98311.09;4898382;29;20293;-83
2021/12/09 18:43:59;;;;;;;19.10;14.57;;;;;;;1.20;84.16;98312.53;4914526;29;20254;-83
2021/12/09 18:46:27;;;;;;;19.10;13.67;;;;;;;1.18;83.27;98306.63;4899724;29;20222;-82
2021/12/09 18:48:54;;;;;;;15.60;13.03;;;;;;;1.20;83.58;98290.63;4899289;29;20227;-83
2021/12/09 18:51:29;;;;;;;17.43;13.60;;;;;;;1.27;83.10;98291.47;4915409;29;20191;-83
2021/12/09 18:53:57;;;;;;;16.50;12.97;;;;;;;1.41;83.41;98297.63;4915231;29;20291;-83
2021/12/09 18:56:39;;;;;;;15.47;12.60;;;;;;;1.39;83.39;98292.56;4888046;29;20884;-83
2021/12/09 18:59:07;;;;;;;13.70;11.40;;;;;;;1.39;82.81;98283.84;4916697;29;20191;-83
2021/12/09 19:01:34;;;;;;;14.73;11.33;;;;;;;1.52;82.61;98292.66;4924636;29;20219;-83
2021/12/09 19:04:05;;;;;;;14.33;11.53;;;;;;;1.51;82.68;98287.56;4913999;29;20238;-83
2021/12/09 19:06:34;;;;;;;13.73;10.43;;;;;;;1.54;82.39;98280.06;4912332;29;20211;-83
2021/12/09 19:09:03;;;;;;;13.53;11.10;;;;;;;1.44;81.76;98262.97;4919139;29;20222;-83
2021/12/09 19:14:49;;;;;;;13.43;10.80;;;;;;;1.42;82.21;98265.78;4960606;23;20247;-83
2021/12/09 19:17:51;;;;;;;13.03;11.20;;;;;;;1.41;82.31;98277.34;4953089;23;20218;-83
2021/12/09 19:20:27;;;;;;;13.33;10.70;;;;;;;1.28;82.30;98251.69;4922246;29;20240;-84
2021/12/09 19:22:57;;;;;;;13.30;11.33;;;;;;;1.21;82.74;98247.41;4961719;23;20217;-84
2021/12/09 19:25:26;;;;;;;12.97;10.70;;;;;;;1.49;83.05;98289.59;4908090;29;20233;-84
2021/12/09 19:28:03;;;;;;;15.10;10.67;;;;;;;1.32;82.86;98260.84;4939317;29;20233;-83
2021/12/09 19:30:41;;;;;;;12.00;9.57;;;;;;;1.50;82.08;98262.97;4974489;23;20657;-83
2021/12/09 19:33:31;;;;;;;10.23;8.43;;;;;;;1.57;82.16;98278.88;4956696;29;20217;-84
2021/12/09 19:36:04;;;;;;;11.50;9.67;;;;;;;1.62;81.81;98281.75;4938989;29;20221;-84
2021/12/09 19:38:32;;;;;;;12.30;9.63;;;;;;;1.64;81.56;98269.97;4939420;29;20281;-84
2021/12/09 19:41:02;;;;;;;12.17;9.80;;;;;;;1.58;81.38;98262.03;4955963;29;20233;-84
2021/12/09 19:43:37;;;;;;;12.00;10.10;;;;;;;1.77;81.20;98299.06;4953645;23;20238;-83
2021/12/09 19:46:24;;;;;;;13.97;9.73;;;;;;;1.57;82.39;98265.66;5200397;23;20237;-83
2021/12/09 19:49:03;;;;;;;11.50;9.73;;;;;;;1.71;81.95;98278.75;4944435;29;20558;-83
2021/12/09 19:51:37;;;;;;;13.23;9.87;;;;;;;1.64;81.61;98253.31;4959448;29;20212;-82
2021/12/09 19:54:10;;;;;;;13.13;9.87;;;;;;;1.71;82.09;98272.66;4942936;29;20232;-83
2021/12/09 20:12:27;;;;;;;13.37;10.73;;;;;;;1.42;82.97;98268.44;4952172;29;20221;-83
2021/12/09 20:15:04;;;;;;;14.73;11.13;;;;;;;1.53;83.42;98293.47;4938633;29;20229;-83
2021/12/09 20:17:37;;;;;;;13.17;10.63;;;;;;;1.54;82.73;98274.78;4941558;29;20237;-83
2021/12/09 20:20:19;;;;;;;15.47;10.70;;;;;;;1.37;82.58;98254.19;4932134;29;20285;-84
2021/12/09 20:22:48;;;;;;;15.20;12.27;;;;;;;1.48;82.59;98286.13;4941310;29;20241;-83
2021/12/09 20:25:21;;;;;;;15.67;12.13;;;;;;;1.51;82.42;98287.56;4943034;28;20257;-83
2021/12/09 20:28:23;;;;;;;17.23;13.40;;;;;;;1.52;82.91;98294.47;4951293;23;20212;-83
2021/12/09 20:30:53;;;;;;;16.70;13.13;;;;;;;1.30;83.12;98276.09;4957472;29;20591;-84
2021/12/09 20:33:23;;;;;;;14.17;12.27;;;;;;;1.29;84.12;98290.28;4957691;29;20233;-83
2021/12/09 20:36:10;;;;;;;13.60;11.73;;;;;;;1.21;83.43;98282.50;4956967;29;20267;-82
2021/12/09 20:38:40;;;;;;;12.60;10.70;;;;;;;1.27;84.02;98286.19;4942410;29;20556;-83
2021/12/09 20:41:21;;;;;;;12.33;10.43;;;;;;;1.42;83.25;98308.00;4960107;23;20248;-83
2021/12/09 20:43:54;;;;;;;13.70;11.00;;;;;;;1.39;83.54;98292.56;4956630;29;20312;-83
2021/12/09 20:46:35;;;;;;;11.87;9.57;;;;;;;1.46;84.01;98305.78;4944317;29;20220;-83
2021/12/09 20:49:14;;;;;;;12.50;10.07;;;;;;;1.18;84.20;98274.16;4956278;29;20445;-83
2021/12/09 20:51:43;;;;;;;12.47;10.50;;;;;;;1.32;83.21;98289.88;4955672;29;20221;-83
2021/12/09 20:54:14;;;;;;;14.07;10.70;;;;;;;1.37;84.35;98305.13;4945816;23;20270;-83
2021/12/09 20:56:41;;;;;;;12.33;10.67;;;;;;;1.26;84.75;98298.56;4907159;29;20225;-83
2021/12/09 20:59:14;;;;;;;12.60;10.40;;;;;;;1.25;85.21;98312.78;4935560;29;20242;-83
2021/12/09 21:01:43;;;;;;;11.37;9.80;;;;;;;1.29;84.90;98345.69;4921338;29;20310;-83
2021/12/09 21:04:12;;;;;;;13.00;10.23;;;;;;;1.24;85.12;98347.25;4937415;29;20254;-84
2021/12/09 21:06:39;;;;;;;14.30;10.90;;;;;;;1.22;85.16;98336.91;4937257;29;20230;-83
2021/12/09 21:09:08;;;;;;;12.87;10.33;;;;;;;1.16;85.50;98329.75;4920351;29;20297;-83
2021/12/09 21:11:37;;;;;;;14.00;11.37;;;;;;;1.09;85.81;98320.97;4936397;29;20238;-83
2021/12/09 21:14:08;;;;;;;14.40;11.03;;;;;;;1.32;85.85;98349.75;4954924;23;20342;-83
2021/12/09 21:16:38;;;;;;;11.93;10.63;;;;;;;1.29;85.97;98340.41;4920226;29;20294;-83
2021/12/09 21:19:24;;;;;;;14.77;11.90;;;;;;;1.13;85.58;98316.94;4906178;29;20290;-83
2021/12/09 21:21:56;;;;;;;14.53;12.10;;;;;;;1.18;85.29;98324.28;4918504;29;20234;-83
2021/12/09 21:24:26;;;;;;;15.13;11.37;;;;;;;1.28;85.34;98333.50;4919072;29;20211;-83
2021/12/09 21:26:58;;;;;;;14.00;10.50;;;;;;;1.27;85.71;98316.03;4905135;29;20223;-83
2021/12/09 21:30:22;;;;;;;12.20;10.07;;;;;;;1.35;85.46;98338.03;4958604;23;20262;-83
2021/12/09 21:33:41;;;;;;;11.57;10.33;;;;;;;1.17;86.02;98328.72;5523305;23;20234;-83
2021/12/09 21:39:40;;;;;;;11.70;10.40;;;;;;;1.24;85.80;98344.63;5475933;23;20210;-83
2021/12/09 21:42:07;;;;;;;11.93;9.50;;;;;;;1.26;85.99;98338.13;4936475;29;20237;-84
2021/12/09 21:44:34;;;;;;;11.23;9.50;;;;;;;1.19;85.96;98323.28;4958093;29;20225;-84
2021/12/09 21:47:01;;;;;;;11.50;10.23;;;;;;;1.33;85.88;98354.03;4941587;29;20217;-84
2021/12/09 21:49:32;;;;;;;12.77;10.13;;;;;;;1.28;86.67;98337.97;4939966;29;20247;-83
2021/12/09 21:52:00;;;;;;;9.90;7.67;;;;;;;1.35;86.50;98344.13;4939989;29;20226;-83
2021/12/09 21:54:28;;;;;;;8.13;7.33;;;;;;;1.22;86.32;98328.16;4937815;29;20225;-84
2021/12/09 21:57:01;;;;;;;7.93;7.13;;;;;;;1.27;86.38;98331.84;4938891;29;20233;-83
2021/12/09 21:59:32;;;;;;;7.20;6.50;;;;;;;1.40;86.54;98346.19;4938928;29;20233;-83
2021/12/09 22:02:08;;;;;;;8.27;6.80;;;;;;;1.50;86.44;98352.72;4955422;29;20233;-83
2021/12/09 22:04:36;;;;;;;5.97;5.17;;;;;;;1.35;86.56;98324.81;4937585;29;20260;-83
2021/12/09 22:07:08;;;;;;;7.07;6.37;;;;;;;1.48;86.31;98338.94;4939540;29;20294;-83
2021/12/09 22:09:35;;;;;;;7.47;6.40;;;;;;;1.36;86.30;98331.72;4938721;29;20244;-83
2021/12/09 22:12:03;;;;;;;7.57;6.80;;;;;;;1.53;86.36;98355.00;4939571;29;20240;-83
2021/12/09 22:14:32;;;;;;;6.30;5.63;;;;;;;1.35;86.53;98324.81;4944128;23;20303;-83
2021/12/09 22:17:03;;;;;;;5.73;5.13;;;;;;;1.38;86.30;98327.06;4952950;28;20256;-84
2021/12/09 22:19:33;;;;;;;5.53;5.03;;;;;;;1.55;85.95;98349.50;4961989;28;20347;-83
2021/12/09 22:22:04;;;;;;;5.90;4.60;;;;;;;1.77;85.75;98348.44;4961870;28;20214;-83
2021/12/09 22:24:38;;;;;;;5.00;4.50;;;;;;;1.76;85.26;98331.78;4962922;28;20240;-83
2021/12/09 22:27:12;;;;;;;4.93;4.43;;;;;;;1.80;84.20;98347.22;4977107;28;20235;-84
2021/12/09 22:29:39;;;;;;;4.67;3.90;;;;;;;1.83;84.23;98329.16;4977944;28;20236;-83
2021/12/09 22:32:09;;;;;;;4.30;3.90;;;;;;;1.80;83.73;98324.28;4980563;28;20265;-84
2021/12/09 22:34:46;;;;;;;4.30;3.90;;;;;;;1.99;83.90;98341.25;4995844;28;20232;-83
2021/12/09 22:37:13;;;;;;;4.07;3.77;;;;;;;2.06;83.84;98342.06;4978198;28;20252;-83
2021/12/09 22:39:43;;;;;;;4.53;4.10;;;;;;;2.04;83.04;98363.44;4992974;28;20212;-83
2021/12/09 22:42:13;;;;;;;4.17;3.87;;;;;;;2.03;83.13;98342.47;4977756;28;20226;-83
2021/12/09 22:44:43;;;;;;;5.97;4.23;;;;;;;2.03;83.06;98339.84;4976293;28;20215;-84
2021/12/09 22:47:13;;;;;;;3.80;3.50;;;;;;;2.25;82.48;98343.16;4975745;28;20230;-83
2021/12/09 22:49:46;;;;;;;3.67;3.37;;;;;;;2.20;82.37;98335.84;4960317;28;20259;-83
2021/12/09 22:52:16;;;;;;;4.20;3.60;;;;;;;2.13;81.83;98311.22;4959149;28;20303;-83
2021/12/09 22:54:44;;;;;;;4.30;3.90;;;;;;;2.23;81.59;98324.88;4950332;28;20228;-83
2021/12/09 22:57:14;;;;;;;4.20;3.80;;;;;;;2.18;81.78;98325.47;4987062;28;20284;-83
2021/12/09 22:59:41;;;;;;;3.97;3.60;;;;;;;2.11;82.05;98315.88;4975614;28;20231;-83
2021/12/09 23:02:17;;;;;;;3.20;3.00;;;;;;;2.22;81.91;98324.06;4959332;28;20514;-83
2021/12/09 23:04:49;;;;;;;3.63;3.33;;;;;;;2.25;82.13;98317.56;4991956;28;20326;-83
2021/12/09 23:07:16;;;;;;;3.27;2.97;;;;;;;2.13;81.87;98296.19;4975933;28;20184;-84
2021/12/09 23:09:52;;;;;;;3.60;3.30;;;;;;;2.23;81.18;98295.81;4975541;28;20244;-83
2021/12/09 23:12:23;;;;;;;3.53;3.23;;;;;;;2.21;81.23;98290.72;4991794;28;20235;-83
2021/12/09 23:14:57;;;;;;;3.40;3.10;;;;;;;2.37;80.66;98308.06;4974502;28;20228;-83
2021/12/09 23:17:30;;;;;;;3.27;2.97;;;;;;;2.36;81.03;98308.25;4960759;28;20256;-83
2021/12/09 23:19:57;;;;;;;3.50;3.20;;;;;;;2.31;80.80;98297.47;4959688;28;20228;-83
2021/12/09 23:22:25;;;;;;;3.50;3.20;;;;;;;2.37;81.13;98304.59;4989796;28;20232;-83
2021/12/09 23:24:59;;;;;;;3.60;3.30;;;;;;;2.18;81.05;98291.13;4943373;28;20591;-83
2021/12/09 23:27:28;;;;;;;3.37;3.07;;;;;;;2.27;81.61;98307.63;4960611;28;20235;-83
2021/12/09 23:29:58;;;;;;;3.47;3.17;;;;;;;2.22;81.83;98296.81;4974662;28;20232;-83
2021/12/09 23:32:25;;;;;;;3.27;2.97;;;;;;;2.27;81.12;98278.53;4960172;28;20232;-82
2021/12/09 23:34:54;;;;;;;3.47;3.17;;;;;;;2.19;80.99;98284.81;4960544;28;20228;-84
2021/12/09 23:37:25;;;;;;;3.20;2.90;;;;;;;2.26;81.00;98286.66;4978765;28;20246;-83
2021/12/09 23:39:55;;;;;;;3.03;2.77;;;;;;;2.27;80.69;98296.22;4994368;28;20254;-84
2021/12/09 23:42:25;;;;;;;3.20;2.90;;;;;;;2.00;81.21;98267.09;4980616;28;20259;-84
2021/12/09 23:44:56;;;;;;;2.80;2.60;;;;;;;2.00;81.26;98253.88;4986986;28;20254;-83
2021/12/09 23:47:35;;;;;;;2.77;2.57;;;;;;;2.08;81.56;98274.00;4958100;28;20223;-84
2021/12/09 23:50:10;;;;;;;2.70;2.50;;;;;;;1.97;81.65;98266.66;4971906;28;20307;-83
2021/12/09 23:52:46;;;;;;;3.30;3.00;;;;;;;2.07;81.11;98281.13;4980068;28;20235;-84
2021/12/09 23:55:17;;;;;;;3.10;2.50;;;;;;;1.76;81.29;98257.84;4995908;28;20231;-84
2021/12/09 23:57:51;;;;;;;2.80;2.60;;;;;;;1.72;82.07;98255.81;4979614;28;20231;-84
